sensor_id;sensor_type;location;lat;lon;timestamp;temperature;humidity
52919;DHT22;38793;52.690;6.812;2022-10-16T00:02:20;13.30;99.90
52919;DHT22;38793;52.690;6.812;2022-10-16T00:04:46;13.30;99.90
52919;DHT22;38793;52.690;6.812;2022-10-16T00:07:11;13.30;99.90
52919;DHT22;38793;52.690;6.812;2022-10-16T00:09:37;13.20;99.90
52919;DHT22;38793;52.690;6.812;2022-10-16T00:12:03;13.20;99.90
52919;DHT22;38793;52.690;6.812;2022-10-16T00:14:30;13.20;99.90
52919;DHT22;38793;52.690;6.812;2022-10-16T00:16:55;13.20;99.90
52919;DHT22;38793;52.690;6.812;2022-10-16T00:19:21;13.20;99.90
52919;DHT22;38793;52.690;6.812;2022-10-16T00:21:46;13.20;99.90
52919;DHT22;38793;52.690;6.812;2022-10-16T00:24:12;13.20;99.90
52919;DHT22;38793;52.690;6.812;2022-10-16T00:26:38;13.20;99.90
52919;DHT22;38793;52.690;6.812;2022-10-16T00:29:04;13.20;99.90
52919;DHT22;38793;52.690;6.812;2022-10-16T00:31:30;13.20;99.90
52919;DHT22;38793;52.690;6.812;2022-10-16T00:33:56;13.20;99.90
52919;DHT22;38793;52.690;6.812;2022-10-16T00:36:23;13.10;99.90
52919;DHT22;38793;52.690;6.812;2022-10-16T00:38:51;13.20;99.90
52919;DHT22;38793;52.690;6.812;2022-10-16T00:41:19;13.10;99.90
52919;DHT22;38793;52.690;6.812;2022-10-16T00:43:47;13.20;99.90
52919;DHT22;38793;52.690;6.812;2022-10-16T00:46:21;13.10;99.90
52919;DHT22;38793;52.690;6.812;2022-10-16T00:48:57;13.20;99.90
52919;DHT22;38793;52.690;6.812;2022-10-16T00:51:30;13.20;99.90
52919;DHT22;38793;52.690;6.812;2022-10-16T00:53:57;13.10;99.90
52919;DHT22;38793;52.690;6.812;2022-10-16T00:56:22;13.10;99.90
52919;DHT22;38793;52.690;6.812;2022-10-16T00:58:48;13.10;99.90
52919;DHT22;38793;52.690;6.812;2022-10-16T01:01:14;13.10;99.90
52919;DHT22;38793;52.690;6.812;2022-10-16T01:03:39;13.10;99.90
52919;DHT22;38793;52.690;6.812;2022-10-16T01:06:24;13.10;99.90
52919;DHT22;38793;52.690;6.812;2022-10-16T01:12:06;13.10;99.90
52919;DHT22;38793;52.690;6.812;2022-10-16T01:17:12;13.10;99.90
52919;DHT22;38793;52.690;6.812;2022-10-16T01:20:24;13.10;99.90
52919;DHT22;38793;52.690;6.812;2022-10-16T01:23:04;13.10;99.90
52919;DHT22;38793;52.690;6.812;2022-10-16T01:26:05;13.10;99.90
52919;DHT22;38793;52.690;6.812;2022-10-16T01:28:43;13.10;99.90
52919;DHT22;38793;52.690;6.812;2022-10-16T01:31:11;13.00;99.90
52919;DHT22;38793;52.690;6.812;2022-10-16T01:33:43;13.00;99.90
52919;DHT22;38793;52.690;6.812;2022-10-16T01:36:14;13.10;99.90
52919;DHT22;38793;52.690;6.812;2022-10-16T01:38:43;13.00;99.90
52919;DHT22;38793;52.690;6.812;2022-10-16T01:41:18;13.00;99.90
52919;DHT22;38793;52.690;6.812;2022-10-16T01:43:56;13.00;99.90
52919;DHT22;38793;52.690;6.812;2022-10-16T01:46:24;13.00;99.90
52919;DHT22;38793;52.690;6.812;2022-10-16T01:48:50;13.00;99.90
52919;DHT22;38793;52.690;6.812;2022-10-16T01:51:17;13.00;99.90
52919;DHT22;38793;52.690;6.812;2022-10-16T01:53:49;13.00;99.90
52919;DHT22;38793;52.690;6.812;2022-10-16T01:56:16;12.90;99.90
52919;DHT22;38793;52.690;6.812;2022-10-16T01:58:48;12.90;99.90
52919;DHT22;38793;52.690;6.812;2022-10-16T02:01:17;13.00;99.90
52919;DHT22;38793;52.690;6.812;2022-10-16T02:03:44;12.90;99.90
52919;DHT22;38793;52.690;6.812;2022-10-16T02:06:11;12.90;99.90
52919;DHT22;38793;52.690;6.812;2022-10-16T02:08:38;12.90;99.90
52919;DHT22;38793;52.690;6.812;2022-10-16T02:11:05;12.90;99.90
52919;DHT22;38793;52.690;6.812;2022-10-16T02:13:40;13.00;99.90
52919;DHT22;38793;52.690;6.812;2022-10-16T02:16:09;13.00;99.90
52919;DHT22;38793;52.690;6.812;2022-10-16T02:18:35;13.00;99.90
52919;DHT22;38793;52.690;6.812;2022-10-16T02:21:25;13.00;99.90
52919;DHT22;38793;52.690;6.812;2022-10-16T02:24:03;13.00;99.90
52919;DHT22;38793;52.690;6.812;2022-10-16T02:26:49;13.10;99.90
52919;DHT22;38793;52.690;6.812;2022-10-16T02:29:25;13.00;99.90
52919;DHT22;38793;52.690;6.812;2022-10-16T02:31:59;13.10;99.90
52919;DHT22;38793;52.690;6.812;2022-10-16T02:34:26;13.10;99.90
52919;DHT22;38793;52.690;6.812;2022-10-16T02:36:53;13.10;99.90
52919;DHT22;38793;52.690;6.812;2022-10-16T02:39:20;13.10;99.90
52919;DHT22;38793;52.690;6.812;2022-10-16T02:41:46;13.20;99.90
52919;DHT22;38793;52.690;6.812;2022-10-16T02:44:12;13.20;99.90
52919;DHT22;38793;52.690;6.812;2022-10-16T02:46:38;13.20;99.90
52919;DHT22;38793;52.690;6.812;2022-10-16T02:49:04;13.20;99.90
52919;DHT22;38793;52.690;6.812;2022-10-16T02:51:29;13.20;99.90
52919;DHT22;38793;52.690;6.812;2022-10-16T02:53:55;13.20;99.90
52919;DHT22;38793;52.690;6.812;2022-10-16T02:56:20;13.30;99.90
52919;DHT22;38793;52.690;6.812;2022-10-16T02:58:46;13.30;99.90
52919;DHT22;38793;52.690;6.812;2022-10-16T03:01:11;13.30;99.90
52919;DHT22;38793;52.690;6.812;2022-10-16T03:03:38;13.30;99.90
52919;DHT22;38793;52.690;6.812;2022-10-16T03:06:04;13.30;99.90
52919;DHT22;38793;52.690;6.812;2022-10-16T03:08:29;13.40;99.90
52919;DHT22;38793;52.690;6.812;2022-10-16T03:10:55;13.40;99.90
52919;DHT22;38793;52.690;6.812;2022-10-16T03:13:20;13.40;99.90
52919;DHT22;38793;52.690;6.812;2022-10-16T03:15:46;13.40;99.90
52919;DHT22;38793;52.690;6.812;2022-10-16T03:18:12;13.50;99.90
52919;DHT22;38793;52.690;6.812;2022-10-16T03:20:38;13.50;99.90
52919;DHT22;38793;52.690;6.812;2022-10-16T03:23:04;13.50;99.90
52919;DHT22;38793;52.690;6.812;2022-10-16T03:25:29;13.50;99.90
52919;DHT22;38793;52.690;6.812;2022-10-16T03:27:55;13.50;99.90
52919;DHT22;38793;52.690;6.812;2022-10-16T03:30:20;13.50;99.90
52919;DHT22;38793;52.690;6.812;2022-10-16T03:32:46;13.50;99.90
52919;DHT22;38793;52.690;6.812;2022-10-16T03:35:12;13.50;99.90
52919;DHT22;38793;52.690;6.812;2022-10-16T03:37:37;13.50;99.90
52919;DHT22;38793;52.690;6.812;2022-10-16T03:40:04;13.50;99.90
52919;DHT22;38793;52.690;6.812;2022-10-16T03:42:29;13.50;99.90
52919;DHT22;38793;52.690;6.812;2022-10-16T03:44:55;13.40;99.90
52919;DHT22;38793;52.690;6.812;2022-10-16T03:47:20;13.40;99.90
52919;DHT22;38793;52.690;6.812;2022-10-16T03:49:49;13.40;99.90
52919;DHT22;38793;52.690;6.812;2022-10-16T03:52:14;13.30;99.90
52919;DHT22;38793;52.690;6.812;2022-10-16T03:54:40;13.30;99.90
52919;DHT22;38793;52.690;6.812;2022-10-16T03:57:05;13.30;99.90
52919;DHT22;38793;52.690;6.812;2022-10-16T03:59:31;13.30;99.90
52919;DHT22;38793;52.690;6.812;2022-10-16T04:01:56;13.30;99.90
52919;DHT22;38793;52.690;6.812;2022-10-16T04:04:22;13.30;99.90
52919;DHT22;38793;52.690;6.812;2022-10-16T04:06:47;13.30;99.90
52919;DHT22;38793;52.690;6.812;2022-10-16T04:09:13;13.30;99.90
52919;DHT22;38793;52.690;6.812;2022-10-16T04:11:38;13.30;99.90
52919;DHT22;38793;52.690;6.812;2022-10-16T04:14:04;13.30;99.90
52919;DHT22;38793;52.690;6.812;2022-10-16T04:16:30;13.30;99.90
52919;DHT22;38793;52.690;6.812;2022-10-16T04:18:55;13.30;99.90
52919;DHT22;38793;52.690;6.812;2022-10-16T04:21:21;13.20;99.90
52919;DHT22;38793;52.690;6.812;2022-10-16T04:23:47;13.20;99.90
52919;DHT22;38793;52.690;6.812;2022-10-16T04:26:13;13.30;99.90
52919;DHT22;38793;52.690;6.812;2022-10-16T04:28:38;13.20;99.90
52919;DHT22;38793;52.690;6.812;2022-10-16T04:31:05;13.20;99.90
52919;DHT22;38793;52.690;6.812;2022-10-16T04:33:30;13.20;99.90
52919;DHT22;38793;52.690;6.812;2022-10-16T04:35:57;13.20;99.90
52919;DHT22;38793;52.690;6.812;2022-10-16T04:38:23;13.20;99.90
52919;DHT22;38793;52.690;6.812;2022-10-16T04:40:49;13.20;99.90
52919;DHT22;38793;52.690;6.812;2022-10-16T04:43:14;13.20;99.90
52919;DHT22;38793;52.690;6.812;2022-10-16T04:45:40;13.20;99.90
52919;DHT22;38793;52.690;6.812;2022-10-16T04:48:05;13.10;99.90
52919;DHT22;38793;52.690;6.812;2022-10-16T04:50:31;13.10;99.90
52919;DHT22;38793;52.690;6.812;2022-10-16T04:52:56;13.10;99.90
52919;DHT22;38793;52.690;6.812;2022-10-16T04:55:22;13.10;99.90
52919;DHT22;38793;52.690;6.812;2022-10-16T04:57:48;13.10;99.90
52919;DHT22;38793;52.690;6.812;2022-10-16T05:00:13;13.10;99.90
52919;DHT22;38793;52.690;6.812;2022-10-16T05:02:39;13.10;99.90
52919;DHT22;38793;52.690;6.812;2022-10-16T05:05:05;13.00;99.90
52919;DHT22;38793;52.690;6.812;2022-10-16T05:07:30;13.00;99.90
52919;DHT22;38793;52.690;6.812;2022-10-16T05:09:56;13.00;99.90
52919;DHT22;38793;52.690;6.812;2022-10-16T05:12:21;13.00;99.90
52919;DHT22;38793;52.690;6.812;2022-10-16T05:14:47;13.00;99.90
52919;DHT22;38793;52.690;6.812;2022-10-16T05:17:12;13.00;99.90
52919;DHT22;38793;52.690;6.812;2022-10-16T05:19:38;13.00;99.90
52919;DHT22;38793;52.690;6.812;2022-10-16T05:22:03;13.00;99.90
52919;DHT22;38793;52.690;6.812;2022-10-16T05:24:29;13.00;99.90
52919;DHT22;38793;52.690;6.812;2022-10-16T05:26:55;13.00;99.90
52919;DHT22;38793;52.690;6.812;2022-10-16T05:29:20;13.00;99.90
52919;DHT22;38793;52.690;6.812;2022-10-16T05:31:46;13.00;99.90
52919;DHT22;38793;52.690;6.812;2022-10-16T05:34:11;12.90;99.90
52919;DHT22;38793;52.690;6.812;2022-10-16T05:36:37;12.90;99.90
52919;DHT22;38793;52.690;6.812;2022-10-16T05:39:03;12.90;99.90
52919;DHT22;38793;52.690;6.812;2022-10-16T05:41:29;12.90;99.90
52919;DHT22;38793;52.690;6.812;2022-10-16T05:43:54;12.90;99.90
52919;DHT22;38793;52.690;6.812;2022-10-16T05:46:20;12.90;99.90
52919;DHT22;38793;52.690;6.812;2022-10-16T05:48:45;12.90;99.90
52919;DHT22;38793;52.690;6.812;2022-10-16T05:51:12;12.90;99.90
52919;DHT22;38793;52.690;6.812;2022-10-16T05:53:40;12.90;99.90
52919;DHT22;38793;52.690;6.812;2022-10-16T05:56:07;12.90;99.90
52919;DHT22;38793;52.690;6.812;2022-10-16T05:58:35;12.90;99.90
52919;DHT22;38793;52.690;6.812;2022-10-16T06:01:03;12.90;99.90
52919;DHT22;38793;52.690;6.812;2022-10-16T06:03:30;12.90;99.90
52919;DHT22;38793;52.690;6.812;2022-10-16T06:05:55;12.90;99.90
52919;DHT22;38793;52.690;6.812;2022-10-16T06:08:22;12.90;99.90
52919;DHT22;38793;52.690;6.812;2022-10-16T06:10:48;12.90;99.90
52919;DHT22;38793;52.690;6.812;2022-10-16T06:13:15;12.90;99.90
52919;DHT22;38793;52.690;6.812;2022-10-16T06:15:42;12.90;99.90
52919;DHT22;38793;52.690;6.812;2022-10-16T06:18:08;12.90;99.90
52919;DHT22;38793;52.690;6.812;2022-10-16T06:20:34;12.90;99.90
52919;DHT22;38793;52.690;6.812;2022-10-16T06:23:00;12.90;99.90
52919;DHT22;38793;52.690;6.812;2022-10-16T06:25:25;12.90;99.90
52919;DHT22;38793;52.690;6.812;2022-10-16T06:27:51;12.90;99.90
52919;DHT22;38793;52.690;6.812;2022-10-16T06:30:17;13.00;99.90
52919;DHT22;38793;52.690;6.812;2022-10-16T06:32:42;13.00;99.90
52919;DHT22;38793;52.690;6.812;2022-10-16T06:35:08;13.10;99.90
52919;DHT22;38793;52.690;6.812;2022-10-16T06:37:33;13.10;99.90
52919;DHT22;38793;52.690;6.812;2022-10-16T06:39:59;13.10;99.90
52919;DHT22;38793;52.690;6.812;2022-10-16T06:42:25;13.10;99.90
52919;DHT22;38793;52.690;6.812;2022-10-16T06:44:51;13.10;99.90
52919;DHT22;38793;52.690;6.812;2022-10-16T06:47:17;13.10;99.90
52919;DHT22;38793;52.690;6.812;2022-10-16T06:49:42;13.10;99.90
52919;DHT22;38793;52.690;6.812;2022-10-16T06:52:08;13.00;99.90
52919;DHT22;38793;52.690;6.812;2022-10-16T06:54:33;13.00;99.90
52919;DHT22;38793;52.690;6.812;2022-10-16T06:56:59;13.00;99.90
52919;DHT22;38793;52.690;6.812;2022-10-16T06:59:25;13.00;99.90
52919;DHT22;38793;52.690;6.812;2022-10-16T07:01:51;13.00;99.90
52919;DHT22;38793;52.690;6.812;2022-10-16T07:04:16;13.00;99.90
52919;DHT22;38793;52.690;6.812;2022-10-16T07:06:42;13.00;99.90
52919;DHT22;38793;52.690;6.812;2022-10-16T07:09:09;13.00;99.90
52919;DHT22;38793;52.690;6.812;2022-10-16T07:11:37;13.10;99.90
52919;DHT22;38793;52.690;6.812;2022-10-16T07:14:03;13.10;99.90
52919;DHT22;38793;52.690;6.812;2022-10-16T07:16:30;13.20;99.90
52919;DHT22;38793;52.690;6.812;2022-10-16T07:18:58;13.40;99.90
52919;DHT22;38793;52.690;6.812;2022-10-16T07:21:25;13.60;99.90
52919;DHT22;38793;52.690;6.812;2022-10-16T07:23:52;13.70;99.90
52919;DHT22;38793;52.690;6.812;2022-10-16T07:26:18;13.70;99.90
52919;DHT22;38793;52.690;6.812;2022-10-16T07:28:44;13.80;99.90
52919;DHT22;38793;52.690;6.812;2022-10-16T07:31:12;13.80;99.90
52919;DHT22;38793;52.690;6.812;2022-10-16T07:33:39;13.80;99.90
52919;DHT22;38793;52.690;6.812;2022-10-16T07:36:05;13.70;99.90
52919;DHT22;38793;52.690;6.812;2022-10-16T07:38:31;13.70;99.90
52919;DHT22;38793;52.690;6.812;2022-10-16T07:40:58;13.70;99.90
52919;DHT22;38793;52.690;6.812;2022-10-16T07:43:24;13.70;99.90
52919;DHT22;38793;52.690;6.812;2022-10-16T07:45:50;13.70;99.90
52919;DHT22;38793;52.690;6.812;2022-10-16T07:48:17;13.70;99.90
52919;DHT22;38793;52.690;6.812;2022-10-16T07:50:43;13.70;99.90
52919;DHT22;38793;52.690;6.812;2022-10-16T07:53:09;13.80;99.90
52919;DHT22;38793;52.690;6.812;2022-10-16T07:55:34;13.80;99.90
52919;DHT22;38793;52.690;6.812;2022-10-16T07:58:00;13.80;99.90
52919;DHT22;38793;52.690;6.812;2022-10-16T08:00:26;13.80;99.90
52919;DHT22;38793;52.690;6.812;2022-10-16T08:02:51;13.80;99.90
52919;DHT22;38793;52.690;6.812;2022-10-16T08:05:17;13.80;99.90
52919;DHT22;38793;52.690;6.812;2022-10-16T08:07:42;13.80;99.90
52919;DHT22;38793;52.690;6.812;2022-10-16T08:10:17;13.80;99.90
52919;DHT22;38793;52.690;6.812;2022-10-16T08:12:43;13.80;99.90
52919;DHT22;38793;52.690;6.812;2022-10-16T08:15:09;13.80;99.90
52919;DHT22;38793;52.690;6.812;2022-10-16T08:17:35;13.80;99.90
52919;DHT22;38793;52.690;6.812;2022-10-16T08:20:00;13.80;99.90
52919;DHT22;38793;52.690;6.812;2022-10-16T08:22:27;13.90;99.90
52919;DHT22;38793;52.690;6.812;2022-10-16T08:24:52;13.90;99.90
52919;DHT22;38793;52.690;6.812;2022-10-16T08:27:18;13.90;99.90
52919;DHT22;38793;52.690;6.812;2022-10-16T08:29:43;14.00;99.90
52919;DHT22;38793;52.690;6.812;2022-10-16T08:32:09;14.00;99.90
52919;DHT22;38793;52.690;6.812;2022-10-16T08:34:34;14.10;99.90
52919;DHT22;38793;52.690;6.812;2022-10-16T08:37:00;14.10;99.90
52919;DHT22;38793;52.690;6.812;2022-10-16T08:39:25;14.10;99.90
52919;DHT22;38793;52.690;6.812;2022-10-16T08:47:18;14.20;99.90
52919;DHT22;38793;52.690;6.812;2022-10-16T08:50:10;14.30;99.90
52919;DHT22;38793;52.690;6.812;2022-10-16T08:52:40;14.30;99.90
52919;DHT22;38793;52.690;6.812;2022-10-16T08:57:46;14.40;99.90
52919;DHT22;38793;52.690;6.812;2022-10-16T09:00:13;14.50;99.90
52919;DHT22;38793;52.690;6.812;2022-10-16T09:05:21;14.60;99.90
52919;DHT22;38793;52.690;6.812;2022-10-16T09:08:03;14.70;99.90
52919;DHT22;38793;52.690;6.812;2022-10-16T09:10:52;14.80;99.90
52919;DHT22;38793;52.690;6.812;2022-10-16T09:16:19;15.10;99.90
52919;DHT22;38793;52.690;6.812;2022-10-16T09:21:35;15.40;99.90
52919;DHT22;38793;52.690;6.812;2022-10-16T09:24:21;15.50;99.90
52919;DHT22;38793;52.690;6.812;2022-10-16T09:26:47;15.60;99.90
52919;DHT22;38793;52.690;6.812;2022-10-16T09:29:14;15.70;99.90
52919;DHT22;38793;52.690;6.812;2022-10-16T09:31:41;15.80;99.90
52919;DHT22;38793;52.690;6.812;2022-10-16T09:34:32;15.90;99.90
52919;DHT22;38793;52.690;6.812;2022-10-16T09:37:00;15.90;99.90
52919;DHT22;38793;52.690;6.812;2022-10-16T09:39:26;16.00;99.90
52919;DHT22;38793;52.690;6.812;2022-10-16T09:41:52;16.00;99.90
52919;DHT22;38793;52.690;6.812;2022-10-16T09:44:30;16.10;99.90
52919;DHT22;38793;52.690;6.812;2022-10-16T09:47:04;16.20;99.90
52919;DHT22;38793;52.690;6.812;2022-10-16T09:49:30;16.30;99.90
52919;DHT22;38793;52.690;6.812;2022-10-16T09:52:25;16.40;99.90
52919;DHT22;38793;52.690;6.812;2022-10-16T09:54:55;16.40;99.90
52919;DHT22;38793;52.690;6.812;2022-10-16T09:57:21;16.50;99.90
52919;DHT22;38793;52.690;6.812;2022-10-16T09:59:48;16.60;99.90
52919;DHT22;38793;52.690;6.812;2022-10-16T10:02:16;16.60;99.90
52919;DHT22;38793;52.690;6.812;2022-10-16T10:04:48;16.70;99.90
52919;DHT22;38793;52.690;6.812;2022-10-16T10:07:23;16.70;99.90
52919;DHT22;38793;52.690;6.812;2022-10-16T10:09:49;16.80;99.90
52919;DHT22;38793;52.690;6.812;2022-10-16T10:12:24;16.90;99.90
52919;DHT22;38793;52.690;6.812;2022-10-16T10:14:56;16.90;99.90
52919;DHT22;38793;52.690;6.812;2022-10-16T10:17:24;16.90;99.90
52919;DHT22;38793;52.690;6.812;2022-10-16T10:20:00;16.90;99.90
52919;DHT22;38793;52.690;6.812;2022-10-16T10:22:40;17.00;99.90
52919;DHT22;38793;52.690;6.812;2022-10-16T10:33:00;17.20;99.90
52919;DHT22;38793;52.690;6.812;2022-10-16T10:35:56;17.30;99.90
52919;DHT22;38793;52.690;6.812;2022-10-16T10:41:39;17.50;99.90
52919;DHT22;38793;52.690;6.812;2022-10-16T10:46:48;17.50;99.90
52919;DHT22;38793;52.690;6.812;2022-10-16T10:49:39;17.60;99.90
52919;DHT22;38793;52.690;6.812;2022-10-16T10:58:26;17.50;99.90
52919;DHT22;38793;52.690;6.812;2022-10-16T11:09:00;17.70;99.90
52919;DHT22;38793;52.690;6.812;2022-10-16T11:14:30;17.70;99.90
52919;DHT22;38793;52.690;6.812;2022-10-16T11:17:05;17.90;99.90
52919;DHT22;38793;52.690;6.812;2022-10-16T11:19:56;18.00;99.90
52919;DHT22;38793;52.690;6.812;2022-10-16T11:22:36;17.90;99.90
52919;DHT22;38793;52.690;6.812;2022-10-16T11:25:21;17.90;99.90
52919;DHT22;38793;52.690;6.812;2022-10-16T11:30:25;17.90;99.90
52919;DHT22;38793;52.690;6.812;2022-10-16T11:33:04;17.80;99.90
52919;DHT22;38793;52.690;6.812;2022-10-16T11:35:43;17.70;99.90
52919;DHT22;38793;52.690;6.812;2022-10-16T11:38:39;17.60;99.90
52919;DHT22;38793;52.690;6.812;2022-10-16T11:41:23;17.60;99.90
52919;DHT22;38793;52.690;6.812;2022-10-16T11:44:03;17.70;99.90
52919;DHT22;38793;52.690;6.812;2022-10-16T11:46:32;17.60;99.90
52919;DHT22;38793;52.690;6.812;2022-10-16T11:49:18;17.70;99.90
52919;DHT22;38793;52.690;6.812;2022-10-16T11:51:57;17.80;99.90
52919;DHT22;38793;52.690;6.812;2022-10-16T11:54:49;17.90;99.90
52919;DHT22;38793;52.690;6.812;2022-10-16T11:57:40;17.80;99.90
52919;DHT22;38793;52.690;6.812;2022-10-16T12:03:28;17.90;99.90
52919;DHT22;38793;52.690;6.812;2022-10-16T12:05:55;17.80;99.90
52919;DHT22;38793;52.690;6.812;2022-10-16T12:08:23;17.70;99.90
52919;DHT22;38793;52.690;6.812;2022-10-16T12:10:48;17.60;99.90
52919;DHT22;38793;52.690;6.812;2022-10-16T12:13:39;17.40;99.90
52919;DHT22;38793;52.690;6.812;2022-10-16T12:18:44;17.40;99.90
52919;DHT22;38793;52.690;6.812;2022-10-16T12:21:10;17.40;99.90
52919;DHT22;38793;52.690;6.812;2022-10-16T12:23:51;17.50;99.90
52919;DHT22;38793;52.690;6.812;2022-10-16T12:26:28;17.60;99.90
52919;DHT22;38793;52.690;6.812;2022-10-16T12:29:12;17.70;99.90
52919;DHT22;38793;52.690;6.812;2022-10-16T12:31:44;17.80;99.90
52919;DHT22;38793;52.690;6.812;2022-10-16T12:36:51;18.10;99.20
52919;DHT22;38793;52.690;6.812;2022-10-16T12:39:22;18.30;99.90
52919;DHT22;38793;52.690;6.812;2022-10-16T12:42:01;18.40;99.60
52919;DHT22;38793;52.690;6.812;2022-10-16T12:44:32;18.50;98.70
52919;DHT22;38793;52.690;6.812;2022-10-16T12:46:58;18.60;98.80
52919;DHT22;38793;52.690;6.812;2022-10-16T12:49:36;18.60;98.70
52919;DHT22;38793;52.690;6.812;2022-10-16T12:52:03;18.70;99.10
52919;DHT22;38793;52.690;6.812;2022-10-16T12:54:30;18.80;98.50
52919;DHT22;38793;52.690;6.812;2022-10-16T12:57:31;18.80;98.50
52919;DHT22;38793;52.690;6.812;2022-10-16T13:00:26;18.90;97.80
52919;DHT22;38793;52.690;6.812;2022-10-16T13:03:19;18.80;96.40
52919;DHT22;38793;52.690;6.812;2022-10-16T13:17:11;18.20;96.70
52919;DHT22;38793;52.690;6.812;2022-10-16T13:22:24;18.30;96.20
52919;DHT22;38793;52.690;6.812;2022-10-16T13:25:40;18.30;96.10
52919;DHT22;38793;52.690;6.812;2022-10-16T13:30:25;18.50;96.30
52919;DHT22;38793;52.690;6.812;2022-10-16T13:35:35;18.50;95.60
52919;DHT22;38793;52.690;6.812;2022-10-16T13:38:16;18.60;96.50
52919;DHT22;38793;52.690;6.812;2022-10-16T13:43:19;18.50;95.50
52919;DHT22;38793;52.690;6.812;2022-10-16T13:45:57;18.50;95.70
52919;DHT22;38793;52.690;6.812;2022-10-16T13:48:23;18.40;95.40
52919;DHT22;38793;52.690;6.812;2022-10-16T13:50:59;18.40;95.90
52919;DHT22;38793;52.690;6.812;2022-10-16T13:53:25;18.30;96.00
52919;DHT22;38793;52.690;6.812;2022-10-16T13:55:50;18.30;95.60
52919;DHT22;38793;52.690;6.812;2022-10-16T13:58:16;18.20;96.40
52919;DHT22;38793;52.690;6.812;2022-10-16T14:00:54;18.10;96.60
52919;DHT22;38793;52.690;6.812;2022-10-16T14:03:20;18.10;96.90
52919;DHT22;38793;52.690;6.812;2022-10-16T14:05:54;18.20;97.40
52919;DHT22;38793;52.690;6.812;2022-10-16T14:08:22;18.20;97.40
52919;DHT22;38793;52.690;6.812;2022-10-16T14:10:54;18.30;96.90
52919;DHT22;38793;52.690;6.812;2022-10-16T14:13:34;18.40;96.90
52919;DHT22;38793;52.690;6.812;2022-10-16T14:16:06;18.40;96.40
52919;DHT22;38793;52.690;6.812;2022-10-16T14:18:33;18.40;96.50
52919;DHT22;38793;52.690;6.812;2022-10-16T14:21:06;18.40;96.20
52919;DHT22;38793;52.690;6.812;2022-10-16T14:23:36;18.40;95.90
52919;DHT22;38793;52.690;6.812;2022-10-16T14:26:12;18.40;96.20
52919;DHT22;38793;52.690;6.812;2022-10-16T14:28:43;18.30;96.40
52919;DHT22;38793;52.690;6.812;2022-10-16T14:31:30;18.30;96.00
52919;DHT22;38793;52.690;6.812;2022-10-16T14:33:56;18.20;95.60
52919;DHT22;38793;52.690;6.812;2022-10-16T14:36:22;18.10;95.90
52919;DHT22;38793;52.690;6.812;2022-10-16T14:39:03;18.10;95.90
52919;DHT22;38793;52.690;6.812;2022-10-16T14:41:31;18.00;95.70
52919;DHT22;38793;52.690;6.812;2022-10-16T14:44:03;17.90;96.10
52919;DHT22;38793;52.690;6.812;2022-10-16T14:46:37;17.90;95.90
52919;DHT22;38793;52.690;6.812;2022-10-16T14:51:38;17.80;95.90
52919;DHT22;38793;52.690;6.812;2022-10-16T14:54:08;17.70;96.20
52919;DHT22;38793;52.690;6.812;2022-10-16T14:56:52;17.70;96.70
52919;DHT22;38793;52.690;6.812;2022-10-16T14:59:39;17.70;96.30
52919;DHT22;38793;52.690;6.812;2022-10-16T15:02:17;17.60;96.30
52919;DHT22;38793;52.690;6.812;2022-10-16T15:04:43;17.50;97.00
52919;DHT22;38793;52.690;6.812;2022-10-16T15:07:09;17.50;97.10
52919;DHT22;38793;52.690;6.812;2022-10-16T15:09:35;17.50;96.80
52919;DHT22;38793;52.690;6.812;2022-10-16T15:12:00;17.40;97.10
52919;DHT22;38793;52.690;6.812;2022-10-16T15:14:26;17.40;97.10
52919;DHT22;38793;52.690;6.812;2022-10-16T15:16:51;17.40;97.30
52919;DHT22;38793;52.690;6.812;2022-10-16T15:19:17;17.40;97.30
52919;DHT22;38793;52.690;6.812;2022-10-16T15:21:42;17.30;97.60
52919;DHT22;38793;52.690;6.812;2022-10-16T15:24:12;17.30;97.90
52919;DHT22;38793;52.690;6.812;2022-10-16T15:26:38;17.20;98.00
52919;DHT22;38793;52.690;6.812;2022-10-16T15:29:04;17.20;98.10
52919;DHT22;38793;52.690;6.812;2022-10-16T15:31:30;17.10;98.40
52919;DHT22;38793;52.690;6.812;2022-10-16T15:33:56;17.10;98.30
52919;DHT22;38793;52.690;6.812;2022-10-16T15:36:32;17.10;98.20
52919;DHT22;38793;52.690;6.812;2022-10-16T15:39:28;17.00;98.50
52919;DHT22;38793;52.690;6.812;2022-10-16T15:41:53;17.00;98.50
52919;DHT22;38793;52.690;6.812;2022-10-16T15:44:20;17.10;98.80
52919;DHT22;38793;52.690;6.812;2022-10-16T15:46:48;17.00;98.70
52919;DHT22;38793;52.690;6.812;2022-10-16T15:49:14;16.90;99.00
52919;DHT22;38793;52.690;6.812;2022-10-16T15:51:41;16.90;98.80
52919;DHT22;38793;52.690;6.812;2022-10-16T15:54:08;16.90;99.10
52919;DHT22;38793;52.690;6.812;2022-10-16T15:56:34;16.80;99.20
52919;DHT22;38793;52.690;6.812;2022-10-16T15:59:02;16.80;99.00
52919;DHT22;38793;52.690;6.812;2022-10-16T16:01:28;16.70;99.20
52919;DHT22;38793;52.690;6.812;2022-10-16T16:03:55;16.80;99.60
52919;DHT22;38793;52.690;6.812;2022-10-16T16:06:21;16.70;99.80
52919;DHT22;38793;52.690;6.812;2022-10-16T16:08:46;16.70;99.90
52919;DHT22;38793;52.690;6.812;2022-10-16T16:11:15;16.60;99.90
52919;DHT22;38793;52.690;6.812;2022-10-16T16:13:40;16.50;99.90
52919;DHT22;38793;52.690;6.812;2022-10-16T16:16:08;16.50;99.90
52919;DHT22;38793;52.690;6.812;2022-10-16T16:18:34;16.40;99.90
52919;DHT22;38793;52.690;6.812;2022-10-16T16:21:00;16.30;99.90
52919;DHT22;38793;52.690;6.812;2022-10-16T16:23:25;16.20;99.90
52919;DHT22;38793;52.690;6.812;2022-10-16T16:26:14;16.20;99.90
52919;DHT22;38793;52.690;6.812;2022-10-16T16:28:41;16.20;99.90
52919;DHT22;38793;52.690;6.812;2022-10-16T16:31:07;16.10;99.90
52919;DHT22;38793;52.690;6.812;2022-10-16T16:33:33;16.10;99.90
52919;DHT22;38793;52.690;6.812;2022-10-16T16:36:00;16.10;99.90
52919;DHT22;38793;52.690;6.812;2022-10-16T16:38:27;16.10;99.90
52919;DHT22;38793;52.690;6.812;2022-10-16T16:40:52;16.00;99.90
52919;DHT22;38793;52.690;6.812;2022-10-16T16:43:19;16.00;99.90
52919;DHT22;38793;52.690;6.812;2022-10-16T16:45:44;15.90;99.90
52919;DHT22;38793;52.690;6.812;2022-10-16T16:48:10;15.70;99.90
52919;DHT22;38793;52.690;6.812;2022-10-16T16:50:36;15.70;99.90
52919;DHT22;38793;52.690;6.812;2022-10-16T16:53:02;15.60;99.90
52919;DHT22;38793;52.690;6.812;2022-10-16T16:55:28;15.60;99.90
52919;DHT22;38793;52.690;6.812;2022-10-16T16:57:53;15.50;99.90
52919;DHT22;38793;52.690;6.812;2022-10-16T17:00:19;15.40;99.90
52919;DHT22;38793;52.690;6.812;2022-10-16T17:02:48;15.30;99.90
52919;DHT22;38793;52.690;6.812;2022-10-16T17:05:14;15.20;99.90
52919;DHT22;38793;52.690;6.812;2022-10-16T17:07:40;15.20;99.90
52919;DHT22;38793;52.690;6.812;2022-10-16T17:10:06;15.20;99.90
52919;DHT22;38793;52.690;6.812;2022-10-16T17:12:32;15.20;99.90
52919;DHT22;38793;52.690;6.812;2022-10-16T17:14:58;15.20;99.90